Time;durP1;ratioP1;P1;durP2;ratioP2;P2;SDS_P1;SDS_P2;PMS_P1;PMS_P2;Temp;Humidity;BMP_temperature;BMP_pressure;BME280_temperature;BME280_humidity;BME280_pressure;Samples;Min_cycle;Max_cycle;Signal;HPM_P1;HPM_P2
2021/09/27 00:00:34;;;;;;;64.10;35.60;;;16.20;99.90;;;;;;4794707;29;20161;-89
2021/09/27 00:03:00;;;;;;;55.42;32.38;;;16.10;99.90;;;;;;4799059;29;20201;-90
2021/09/27 00:05:27;;;;;;;50.20;30.92;;;16.10;99.90;;;;;;4792024;29;20042;-90
2021/09/27 00:07:52;;;;;;;43.40;28.20;;;16.10;99.90;;;;;;4805728;29;20610;-90
2021/09/27 00:10:26;;;;;;;59.30;34.80;;;16.00;99.90;;;;;;4775181;29;20141;-90
2021/09/27 00:12:52;;;;;;;44.75;28.40;;;16.10;99.90;;;;;;4803225;29;20509;-89
2021/09/27 00:15:27;;;;;;;38.22;26.33;;;16.10;99.90;;;;;;4787710;29;20059;-90
2021/09/27 00:17:52;;;;;;;46.95;29.40;;;16.10;99.90;;;;;;4802169;29;20050;-90
2021/09/27 00:20:19;;;;;;;39.97;27.52;;;16.10;99.90;;;;;;4783419;29;20564;-90
2021/09/27 00:22:45;;;;;;;52.53;30.48;;;16.10;99.90;;;;;;4773577;29;20057;-90
2021/09/27 00:25:12;;;;;;;39.55;26.58;;;16.10;99.90;;;;;;4787886;29;20051;-91
2021/09/27 00:27:38;;;;;;;45.47;28.60;;;16.10;99.90;;;;;;4810407;29;20053;-91
2021/09/27 00:30:05;;;;;;;47.08;29.73;;;16.10;99.90;;;;;;4789128;29;20062;-90
2021/09/27 00:32:31;;;;;;;45.03;30.17;;;16.00;99.90;;;;;;4787855;29;20058;-90
2021/09/27 00:34:57;;;;;;;49.30;28.67;;;16.00;99.90;;;;;;4774844;29;20065;-90
2021/09/27 00:37:23;;;;;;;43.25;25.77;;;15.90;99.90;;;;;;4799089;29;20122;-91
2021/09/27 00:39:48;;;;;;;43.88;27.05;;;15.90;99.90;;;;;;4788564;29;20059;-90
2021/09/27 00:42:14;;;;;;;43.60;26.30;;;15.80;99.90;;;;;;4811147;29;20500;-91
2021/09/27 00:44:40;;;;;;;47.60;29.08;;;15.80;99.90;;;;;;4802445;29;20047;-90
2021/09/27 00:47:06;;;;;;;35.45;25.10;;;15.70;99.90;;;;;;4801599;29;20050;-91
2021/09/27 00:49:32;;;;;;;48.97;29.50;;;15.60;99.90;;;;;;4805579;29;20119;-90
2021/09/27 00:51:58;;;;;;;49.50;30.75;;;15.60;99.90;;;;;;4788248;29;20055;-90
2021/09/27 00:54:32;;;;;;;49.10;28.83;;;15.60;99.90;;;;;;4789851;29;20130;-90
2021/09/27 00:57:12;;;;;;;58.83;30.90;;;15.50;99.90;;;;;;4790680;29;20106;-90
2021/09/27 00:59:43;;;;;;;68.05;33.03;;;15.50;99.90;;;;;;4791098;29;20256;-90
2021/09/27 01:02:10;;;;;;;44.75;28.95;;;15.50;99.90;;;;;;4797415;29;20039;-92
2021/09/27 01:04:37;;;;;;;57.85;32.08;;;15.40;99.90;;;;;;4793607;29;20129;-90
2021/09/27 01:07:30;;;;;;;58.30;33.08;;;15.40;99.90;;;;;;4796095;29;20050;-90
2021/09/27 01:10:20;;;;;;;44.67;24.98;;;15.30;99.90;;;;;;4799167;29;20093;-90
2021/09/27 01:12:49;;;;;;;55.08;32.28;;;15.30;99.90;;;;;;4797824;29;20053;-90
2021/09/27 01:15:15;;;;;;;47.78;28.65;;;15.20;99.90;;;;;;4798872;29;20058;-92
2021/09/27 01:18:09;;;;;;;42.50;26.70;;;15.10;99.90;;;;;;4805750;29;20058;-90
2021/09/27 01:20:54;;;;;;;53.38;30.38;;;15.10;99.90;;;;;;4790313;29;20063;-90
2021/09/27 01:23:47;;;;;;;69.85;34.13;;;15.20;99.90;;;;;;4800968;29;20396;-90
2021/09/27 01:26:19;;;;;;;53.22;30.13;;;15.10;99.90;;;;;;4788494;29;20051;-93
2021/09/27 01:29:03;;;;;;;61.97;33.58;;;15.00;99.90;;;;;;4791377;29;20137;-90
2021/09/27 01:31:59;;;;;;;70.93;37.08;;;15.00;99.90;;;;;;4792431;29;20050;-90
2021/09/27 01:34:33;;;;;;;73.45;37.00;;;15.00;99.90;;;;;;4799264;29;20050;-92
2021/09/27 01:37:28;;;;;;;69.95;33.83;;;15.00;99.90;;;;;;4791151;29;20097;-91
2021/09/27 01:40:02;;;;;;;66.28;33.90;;;14.90;99.90;;;;;;4802588;29;20425;-90
2021/09/27 01:42:46;;;;;;;82.03;38.58;;;14.90;99.90;;;;;;4790261;29;20690;-91
2021/09/27 01:45:34;;;;;;;94.75;41.10;;;14.90;99.90;;;;;;4802239;29;20507;-91
2021/09/27 01:48:15;;;;;;;86.47;41.40;;;14.90;99.90;;;;;;4798700;29;20199;-91
2021/09/27 01:50:55;;;;;;;80.90;36.90;;;14.90;99.90;;;;;;4789762;29;20050;-92
2021/09/27 01:53:42;;;;;;;72.95;36.60;;;14.80;99.90;;;;;;4788796;29;20442;-91
2021/09/27 01:56:25;;;;;;;86.68;41.08;;;14.80;99.90;;;;;;4789257;29;20050;-91
2021/09/27 01:59:06;;;;;;;93.28;40.15;;;14.70;99.90;;;;;;4805943;29;20054;-91
2021/09/27 02:01:51;;;;;;;60.17;27.67;;;14.80;99.90;;;;;;4793633;29;20058;-89
2021/09/27 02:04:37;;;;;;;49.03;28.67;;;14.70;99.90;;;;;;4772858;29;20047;-91
2021/09/27 02:07:05;;;;;;;78.75;38.47;;;14.60;99.90;;;;;;4789705;29;20050;-90
2021/09/27 02:09:47;;;;;;;80.45;37.90;;;14.60;99.90;;;;;;4793125;29;20050;-91
2021/09/27 02:12:20;;;;;;;58.22;32.65;;;14.60;99.90;;;;;;4819202;29;20058;-91
2021/09/27 02:15:05;;;;;;;87.30;39.72;;;14.60;99.90;;;;;;4803831;29;20051;-91
2021/09/27 02:17:59;;;;;;;67.88;34.70;;;14.60;99.90;;;;;;4803843;29;20111;-90
2021/09/27 02:20:37;;;;;;;67.70;33.70;;;14.50;99.90;;;;;;4804010;29;20449;-90
2021/09/27 02:23:26;;;;;;;89.75;39.17;;;14.60;99.90;;;;;;4791652;29;20069;-91
2021/09/27 02:25:52;;;;;;;89.47;39.95;;;14.50;99.90;;;;;;4806616;29;20046;-90
2021/09/27 02:28:21;;;;;;;97.07;38.70;;;14.50;99.90;;;;;;4788869;29;20083;-92
2021/09/27 02:31:09;;;;;;;56.40;31.67;;;14.50;99.90;;;;;;4788852;29;20141;-91
2021/09/27 02:33:44;;;;;;;92.22;39.83;;;14.50;99.90;;;;;;4776879;29;20138;-90
2021/09/27 02:36:19;;;;;;;51.75;28.17;;;14.50;99.90;;;;;;4801980;29;20172;-91
2021/09/27 02:39:06;;;;;;;91.38;41.65;;;14.50;99.90;;;;;;4787999;29;20066;-91
2021/09/27 02:41:54;;;;;;;64.60;33.60;;;14.60;99.90;;;;;;4807669;29;20124;-90
2021/09/27 02:44:21;;;;;;;86.85;39.25;;;14.60;99.90;;;;;;4778578;30;20108;-93
2021/09/27 02:46:54;;;;;;;47.72;28.35;;;14.60;99.90;;;;;;4780101;29;20070;-90
2021/09/27 02:49:26;;;;;;;75.82;36.28;;;14.70;99.90;;;;;;4785337;29;20047;-89
2021/09/27 02:51:52;;;;;;;71.70;36.33;;;14.70;99.90;;;;;;4801284;29;20051;-89
2021/09/27 02:54:31;;;;;;;49.65;29.60;;;14.70;99.90;;;;;;4803008;29;20176;-90
2021/09/27 02:57:45;;;;;;;67.03;30.10;;;14.80;99.90;;;;;;4775241;29;20064;-90
2021/09/27 03:00:13;;;;;;;50.25;25.55;;;14.80;99.90;;;;;;4785333;29;20086;-90
2021/09/27 03:02:53;;;;;;;53.35;29.08;;;14.70;99.90;;;;;;4797896;29;20055;-90
2021/09/27 03:05:36;;;;;;;62.78;34.08;;;14.80;99.90;;;;;;4773027;29;20047;-91
2021/09/27 03:08:08;;;;;;;77.38;36.80;;;14.80;99.90;;;;;;4795253;29;20078;-91
2021/09/27 03:10:51;;;;;;;54.92;29.25;;;14.80;99.90;;;;;;4805669;29;20381;-92
2021/09/27 03:13:21;;;;;;;65.50;31.38;;;14.80;99.90;;;;;;4792029;29;20162;-90
2021/09/27 03:16:06;;;;;;;65.35;32.42;;;14.70;99.90;;;;;;4784775;29;20051;-92
2021/09/27 03:18:43;;;;;;;50.05;23.80;;;14.60;99.90;;;;;;4784927;29;20112;-90
2021/09/27 03:21:39;;;;;;;74.00;35.17;;;14.60;99.90;;;;;;4797515;29;20110;-89
2021/09/27 03:24:54;;;;;;;82.80;34.75;;;14.50;99.90;;;;;;4787952;29;20051;-91
2021/09/27 03:27:53;;;;;;;65.03;32.97;;;14.50;99.90;;;;;;4771655;29;20334;-91
2021/09/27 03:30:30;;;;;;;66.95;32.45;;;14.40;99.90;;;;;;4789901;29;20051;-91
2021/09/27 03:33:20;;;;;;;71.70;35.08;;;14.50;99.90;;;;;;4799807;29;20112;-91
2021/09/27 03:35:52;;;;;;;;;;;14.50;99.90;;;;;;4802417;29;20055;-91
2021/09/27 03:38:27;;;;;;;69.15;32.92;;;14.40;99.90;;;;;;4786120;29;20633;-90
2021/09/27 03:41:37;;;;;;;67.80;33.33;;;14.40;99.90;;;;;;4784606;29;20116;-90
2021/09/27 03:44:14;;;;;;;68.60;33.60;;;14.30;99.90;;;;;;4766296;29;20480;-91
2021/09/27 03:47:01;;;;;;;85.18;38.10;;;14.30;99.90;;;;;;4795597;29;20126;-88
2021/09/27 03:49:29;;;;;;;63.60;28.45;;;14.30;99.90;;;;;;4783757;29;20120;-89
2021/09/27 03:52:22;;;;;;;38.80;23.88;;;14.20;99.90;;;;;;4796808;29;20051;-90
2021/09/27 03:55:07;;;;;;;78.80;34.75;;;14.10;99.90;;;;;;4796561;29;20453;-91
2021/09/27 03:57:41;;;;;;;42.85;23.25;;;14.10;99.90;;;;;;4809467;29;20056;-90
2021/09/27 04:00:09;;;;;;;43.55;24.55;;;14.00;99.90;;;;;;4787620;29;20565;-90
2021/09/27 04:02:59;;;;;;;57.53;29.80;;;14.00;99.90;;;;;;4796864;29;20058;-89
2021/09/27 04:06:01;;;;;;;72.90;31.50;;;13.90;99.90;;;;;;4811751;29;20130;-90
2021/09/27 04:08:42;;;;;;;74.75;33.05;;;13.90;99.90;;;;;;4797771;29;20057;-92
2021/09/27 04:11:46;;;;;;;61.17;29.85;;;13.90;99.90;;;;;;4775398;29;20066;-90
2021/09/27 04:14:20;;;;;;;62.65;28.25;;;13.90;99.90;;;;;;4814913;29;20057;-91
2021/09/27 04:17:37;;;;;;;48.20;24.63;;;13.80;99.90;;;;;;4793434;29;20043;-90
2021/09/27 04:20:16;;;;;;;55.67;29.50;;;13.70;99.90;;;;;;4761113;29;20125;-90
2021/09/27 04:23:05;;;;;;;81.60;36.55;;;13.70;99.90;;;;;;4783125;29;20062;-90
2021/09/27 04:26:04;;;;;;;69.97;31.95;;;13.80;99.90;;;;;;4779160;29;20411;-92
2021/09/27 04:28:39;;;;;;;95.15;36.63;;;13.80;99.90;;;;;;4795747;29;20059;-92
2021/09/27 04:31:22;;;;;;;73.18;29.50;;;13.80;99.90;;;;;;4790059;29;20063;-91
2021/09/27 04:34:05;;;;;;;78.88;31.83;;;13.70;99.90;;;;;;4790063;29;20058;-90
2021/09/27 04:36:39;;;;;;;85.78;35.92;;;13.70;99.90;;;;;;4795994;29;20470;-92
2021/09/27 04:39:12;;;;;;;92.13;37.30;;;13.70;99.90;;;;;;4782098;29;20059;-91
2021/09/27 04:42:02;;;;;;;88.47;38.78;;;13.70;99.90;;;;;;4772444;29;20579;-91
2021/09/27 04:45:03;;;;;;;73.57;35.42;;;13.70;99.90;;;;;;4765045;30;20047;-91
2021/09/27 04:47:48;;;;;;;90.93;39.70;;;13.70;99.90;;;;;;4767328;30;20138;-91
2021/09/27 04:50:20;;;;;;;89.70;38.03;;;13.70;99.90;;;;;;4771322;29;20059;-92
2021/09/27 04:52:52;;;;;;;90.78;37.58;;;13.70;99.90;;;;;;4769439;30;20529;-91
2021/09/27 04:55:25;;;;;;;99.53;41.13;;;13.70;99.90;;;;;;4770326;29;20401;-92
2021/09/27 04:58:26;;;;;;;89.57;35.28;;;13.70;99.90;;;;;;4769679;30;20060;-91
2021/09/27 05:01:23;;;;;;;79.95;33.35;;;13.70;99.90;;;;;;4720463;30;20527;-90
2021/09/27 05:04:15;;;;;;;70.75;34.00;;;13.60;99.90;;;;;;4787823;29;20049;-90
2021/09/27 05:07:22;;;;;;;72.03;33.92;;;13.60;99.90;;;;;;4779601;29;20086;-89
2021/09/27 05:10:25;;;;;;;69.85;33.03;;;13.60;99.90;;;;;;4783696;29;20066;-89
2021/09/27 05:13:24;;;;;;;97.97;38.38;;;13.60;99.90;;;;;;4771204;29;20055;-90
2021/09/27 05:16:06;;;;;;;72.60;34.37;;;13.50;99.90;;;;;;4793734;29;20115;-91
2021/09/27 05:19:27;;;;;;;85.30;36.60;;;13.50;99.90;;;;;;4778134;29;20108;-92
2021/09/27 05:22:34;;;;;;;83.05;35.72;;;13.50;99.90;;;;;;4649402;30;20062;-92
2021/09/27 05:25:54;;;;;;;79.90;34.83;;;13.50;99.90;;;;;;4774623;30;20047;-90
2021/09/27 05:28:24;;;;;;;;;;;13.40;99.90;;;;;;4683224;30;20069;-89
2021/09/27 05:31:01;;;;;;;81.60;33.58;;;13.40;99.90;;;;;;4755622;30;19930;-90
2021/09/27 05:34:15;;;;;;;86.35;38.15;;;13.40;99.90;;;;;;4792946;29;20555;-90
2021/09/27 05:37:01;;;;;;;90.07;37.85;;;13.50;99.90;;;;;;4764048;30;20131;-89
2021/09/27 05:39:48;;;;;;;94.38;38.58;;;13.50;99.90;;;;;;4751714;30;20082;-89
2021/09/27 05:42:50;;;;;;;96.35;38.30;;;13.50;99.90;;;;;;4756897;30;20059;-90
2021/09/27 05:45:34;;;;;;;93.68;38.97;;;13.50;99.90;;;;;;4775049;29;20064;-89
2021/09/27 05:48:26;;;;;;;92.90;40.20;;;13.50;99.90;;;;;;4769465;29;20056;-91
2021/09/27 05:51:10;;;;;;;86.22;38.28;;;13.60;99.90;;;;;;4767924;30;20126;-89
2021/09/27 05:53:45;;;;;;;84.53;35.13;;;13.60;99.90;;;;;;4784211;29;20047;-90
2021/09/27 05:56:16;;;;;;;88.75;39.80;;;13.60;99.90;;;;;;4777223;29;20544;-88
2021/09/27 05:59:12;;;;;;;96.30;40.67;;;13.70;99.90;;;;;;4766307;30;20063;-89
2021/09/27 06:01:58;;;;;;;86.03;38.63;;;13.70;99.90;;;;;;4769354;29;20536;-92
2021/09/27 06:04:42;;;;;;;89.72;38.22;;;13.80;99.90;;;;;;4781046;29;20401;-90
2021/09/27 06:07:22;;;;;;;95.80;40.47;;;13.70;99.90;;;;;;4776461;29;20066;-90
2021/09/27 06:10:15;;;;;;;94.22;39.97;;;13.70;99.90;;;;;;4778804;29;20567;-91
2021/09/27 06:12:55;;;;;;;93.78;41.28;;;13.80;99.90;;;;;;4770239;29;20109;-92
2021/09/27 06:15:26;;;;;;;101.40;41.78;;;13.80;99.90;;;;;;4776271;29;20047;-89
2021/09/27 06:18:25;;;;;;;94.20;40.95;;;13.80;99.90;;;;;;4772857;29;20439;-89
2021/09/27 06:21:11;;;;;;;95.82;40.30;;;13.90;99.90;;;;;;4786022;29;20059;-90
2021/09/27 06:23:42;;;;;;;83.15;38.92;;;13.90;99.90;;;;;;4770348;29;20064;-90
2021/09/27 06:26:11;;;;;;;98.43;41.13;;;14.00;99.90;;;;;;4757109;29;20493;-90
2021/09/27 06:29:01;;;;;;;93.80;40.95;;;14.00;99.90;;;;;;4761330;30;20058;-90
2021/09/27 06:31:37;;;;;;;;;;;14.10;99.90;;;;;;4783708;29;20404;-90
2021/09/27 06:34:15;;;;;;;96.03;40.00;;;14.10;99.90;;;;;;4766542;29;19961;-90
2021/09/27 06:36:42;;;;;;;98.00;41.35;;;14.20;99.90;;;;;;4780922;29;20051;-92
2021/09/27 06:39:15;;;;;;;94.40;40.88;;;14.20;99.90;;;;;;4752813;30;20159;-89
2021/09/27 06:41:42;;;;;;;86.80;38.53;;;14.30;99.90;;;;;;4783592;29;20116;-91
2021/09/27 06:44:07;;;;;;;83.47;37.85;;;14.30;99.90;;;;;;4762586;30;20078;-89
2021/09/27 06:46:33;;;;;;;66.28;33.95;;;14.30;99.90;;;;;;4770586;29;20485;-91
2021/09/27 06:48:59;;;;;;;78.05;33.22;;;14.40;99.90;;;;;;4779041;29;20290;-90
2021/09/27 06:51:25;;;;;;;70.88;35.90;;;14.40;99.90;;;;;;4768616;29;20047;-89
2021/09/27 06:53:51;;;;;;;72.93;35.03;;;14.50;99.90;;;;;;4753566;30;20109;-91
2021/09/27 06:56:17;;;;;;;74.28;36.75;;;14.50;99.90;;;;;;4748269;30;20128;-91
2021/09/27 06:58:43;;;;;;;69.25;32.35;;;14.60;99.90;;;;;;4760124;30;20066;-91
2021/09/27 07:01:08;;;;;;;61.47;31.63;;;14.70;99.90;;;;;;4763899;30;20051;-91
2021/09/27 07:03:34;;;;;;;56.10;30.35;;;14.80;99.90;;;;;;4781304;29;20051;-89
2021/09/27 07:06:00;;;;;;;70.32;32.47;;;14.90;99.90;;;;;;4759953;30;20066;-91
2021/09/27 07:08:25;;;;;;;58.72;31.27;;;15.00;99.90;;;;;;4766104;29;20075;-90
2021/09/27 07:10:53;;;;;;;57.03;30.27;;;15.10;99.90;;;;;;4768019;29;20086;-90
2021/09/27 07:13:20;;;;;;;62.63;31.77;;;15.10;99.90;;;;;;4765397;30;20044;-87
2021/09/27 07:15:46;;;;;;;54.47;27.92;;;15.20;99.90;;;;;;4769707;29;20055;-91
2021/09/27 07:18:12;;;;;;;57.10;30.27;;;15.30;99.90;;;;;;4760951;30;20047;-90
2021/09/27 07:20:38;;;;;;;57.72;29.08;;;15.30;99.90;;;;;;4780959;29;20056;-90
2021/09/27 07:23:04;;;;;;;53.30;28.95;;;15.40;99.90;;;;;;4771071;29;20097;-90
2021/09/27 07:25:32;;;;;;;51.28;27.23;;;15.50;99.90;;;;;;4757969;30;20130;-90
2021/09/27 07:27:58;;;;;;;48.78;27.23;;;15.50;99.90;;;;;;4774184;29;20408;-89
2021/09/27 07:30:25;;;;;;;39.83;24.13;;;15.60;99.90;;;;;;4758029;30;20047;-89
2021/09/27 07:32:52;;;;;;;45.78;25.77;;;15.60;99.90;;;;;;4753763;29;20090;-90
2021/09/27 07:35:22;;;;;;;40.47;24.88;;;15.70;99.90;;;;;;4772440;29;20177;-90
2021/09/27 07:37:48;;;;;;;45.65;24.45;;;15.80;99.90;;;;;;4771089;29;20055;-92
2021/09/27 07:40:17;;;;;;;40.00;24.23;;;15.90;99.90;;;;;;4767955;29;20059;-89
2021/09/27 07:42:43;;;;;;;35.97;21.92;;;16.00;99.90;;;;;;4776543;29;20062;-90
2021/09/27 07:45:12;;;;;;;41.33;24.40;;;16.00;99.90;;;;;;4774572;29;20055;-90
2021/09/27 07:47:38;;;;;;;34.30;21.92;;;16.10;99.90;;;;;;4777245;29;20051;-91
2021/09/27 07:50:05;;;;;;;35.72;22.65;;;16.20;99.90;;;;;;4779431;29;20066;-91
2021/09/27 07:52:31;;;;;;;36.92;22.50;;;16.20;99.90;;;;;;4784904;29;20063;-95
2021/09/27 07:54:58;;;;;;;36.35;22.75;;;16.30;99.90;;;;;;4781656;29;20056;-95
2021/09/27 07:57:23;;;;;;;36.20;22.73;;;16.30;99.90;;;;;;4767325;29;20062;-95
2021/09/27 07:59:52;;;;;;;30.90;21.58;;;16.40;99.90;;;;;;4768428;30;20043;-92
2021/09/27 08:02:20;;;;;;;37.28;22.25;;;16.40;99.90;;;;;;4767247;30;20494;-95
2021/09/27 08:04:46;;;;;;;32.42;22.10;;;16.50;99.90;;;;;;4772054;30;20126;-96
2021/09/27 08:07:13;;;;;;;35.38;20.77;;;16.50;99.90;;;;;;4788315;29;20063;-93
2021/09/27 08:09:42;;;;;;;28.85;20.65;;;16.50;99.90;;;;;;4766027;30;20059;-94
2021/09/27 08:12:08;;;;;;;33.13;21.30;;;16.60;99.90;;;;;;4799942;29;20745;-96
2021/09/27 08:14:34;;;;;;;37.05;20.63;;;16.60;99.90;;;;;;4760535;30;20208;-96
2021/09/27 08:17:00;;;;;;;32.03;20.02;;;16.60;99.90;;;;;;4787875;29;20075;-96
2021/09/27 08:19:25;;;;;;;34.80;20.48;;;16.80;99.90;;;;;;4787202;29;20105;-96
2021/09/27 08:21:52;;;;;;;29.45;19.65;;;16.80;99.90;;;;;;4771322;29;20081;-93
2021/09/27 08:24:18;;;;;;;32.55;19.50;;;16.90;99.90;;;;;;4757874;29;20047;-96
2021/09/27 08:26:44;;;;;;;31.90;20.17;;;16.90;99.90;;;;;;4788757;29;20052;-96
2021/09/27 08:29:10;;;;;;;28.92;18.75;;;16.90;99.90;;;;;;4789103;29;20676;-96
2021/09/27 08:31:35;;;;;;;32.15;20.38;;;17.00;99.90;;;;;;4789578;29;20834;-96
2021/09/27 08:34:01;;;;;;;39.00;20.38;;;17.00;99.90;;;;;;4784622;29;20048;-96
2021/09/27 08:36:28;;;;;;;35.40;20.40;;;17.10;99.90;;;;;;4780295;29;20086;-91
2021/09/27 08:38:55;;;;;;;32.13;19.38;;;17.20;99.90;;;;;;4785529;29;20059;-91
2021/09/27 08:41:29;;;;;;;30.52;19.58;;;17.30;99.90;;;;;;4769765;29;20135;-93
2021/09/27 08:44:01;;;;;;;27.25;18.75;;;17.30;99.90;;;;;;4768182;29;20070;-90
2021/09/27 08:46:30;;;;;;;32.63;20.50;;;17.30;99.90;;;;;;4772947;29;20051;-94
2021/09/27 08:49:13;;;;;;;33.40;18.77;;;17.30;99.90;;;;;;4765967;30;20047;-92
2021/09/27 08:51:39;;;;;;;32.30;19.60;;;17.20;99.90;;;;;;4789802;29;20051;-94
2021/09/27 08:54:16;;;;;;;28.23;18.30;;;17.20;99.90;;;;;;4769566;30;20055;-92
2021/09/27 08:56:52;;;;;;;30.15;19.10;;;17.30;99.90;;;;;;4778238;29;20129;-94
2021/09/27 08:59:27;;;;;;;28.35;18.88;;;17.40;99.90;;;;;;4767562;29;20055;-93
2021/09/27 09:02:19;;;;;;;28.67;19.00;;;17.60;99.90;;;;;;4762398;29;20065;-89
2021/09/27 09:04:56;;;;;;;27.75;18.80;;;17.70;99.90;;;;;;4764018;29;20142;-91
2021/09/27 09:07:23;;;;;;;26.77;18.15;;;17.70;99.90;;;;;;4772936;29;20062;-91
2021/09/27 09:10:04;;;;;;;25.60;17.33;;;17.70;99.90;;;;;;4773544;29;20536;-90
2021/09/27 09:12:50;;;;;;;23.17;15.73;;;17.80;99.90;;;;;;4785483;29;20534;-90
2021/09/27 09:15:25;;;;;;;24.15;15.98;;;17.80;99.90;;;;;;4766376;29;20120;-89
2021/09/27 09:18:11;;;;;;;25.40;16.20;;;18.10;99.90;;;;;;4756180;30;20086;-90
2021/09/27 09:20:47;;;;;;;20.85;15.32;;;18.30;99.90;;;;;;4778503;29;20071;-92
2021/09/27 09:23:19;;;;;;;24.27;14.95;;;18.50;99.90;;;;;;4780017;29;20055;-94
2021/09/27 09:25:45;;;;;;;19.77;13.98;;;18.70;99.90;;;;;;4770070;30;20047;-95
2021/09/27 09:28:12;;;;;;;20.70;13.73;;;18.90;99.90;;;;;;4755609;30;20046;-94
2021/09/27 09:30:49;;;;;;;18.45;13.95;;;19.00;99.90;;;;;;4770755;29;20051;-93
2021/09/27 09:33:35;;;;;;;16.17;13.38;;;18.90;99.90;;;;;;4772099;29;20052;-94
2021/09/27 09:36:00;;;;;;;26.98;14.20;;;18.90;99.90;;;;;;4756150;30;20051;-91
2021/09/27 09:38:26;;;;;;;18.27;13.20;;;19.00;99.90;;;;;;4754765;29;20091;-93
2021/09/27 09:40:55;;;;;;;19.08;13.75;;;19.20;99.90;;;;;;4790560;29;20050;-95
2021/09/27 09:43:44;;;;;;;18.77;12.97;;;19.40;99.90;;;;;;4792408;29;20039;-91
2021/09/27 09:46:22;;;;;;;18.30;12.50;;;19.50;99.90;;;;;;4797620;29;20086;-93
2021/09/27 09:49:03;;;;;;;26.30;12.30;;;19.60;99.90;;;;;;4800174;29;20060;-91
2021/09/27 09:52:00;;;;;;;15.98;12.35;;;19.80;99.90;;;;;;4773517;29;20046;-92
2021/09/27 09:54:28;;;;;;;16.70;11.65;;;19.80;99.90;;;;;;4786977;29;20106;-91
2021/09/27 09:57:03;;;;;;;14.80;12.35;;;20.00;99.90;;;;;;4787156;29;20170;-91
2021/09/27 09:59:42;;;;;;;18.85;12.20;;;19.90;99.90;;;;;;4788200;29;20055;-92
2021/09/27 10:02:19;;;;;;;14.88;11.30;;;20.00;99.90;;;;;;4793297;29;20046;-92
2021/09/27 10:05:08;;;;;;;18.58;10.63;;;20.10;99.90;;;;;;4788303;29;20153;-91
2021/09/27 10:07:49;;;;;;;19.42;10.10;;;20.20;99.90;;;;;;4797964;29;20055;-91
2021/09/27 10:10:29;;;;;;;16.52;10.85;;;20.40;99.90;;;;;;4790824;29;20050;-92
2021/09/27 10:12:57;;;;;;;18.50;9.95;;;20.60;99.90;;;;;;4789621;29;20039;-93
2021/09/27 10:15:26;;;;;;;17.13;10.85;;;20.70;99.90;;;;;;4789898;29;20316;-93
2021/09/27 10:18:01;;;;;;;18.13;10.60;;;20.80;99.90;;;;;;4786840;29;20086;-96
2021/09/27 10:20:36;;;;;;;13.00;10.07;;;20.90;99.90;;;;;;4790868;29;20587;-95
2021/09/27 10:23:05;;;;;;;19.50;10.68;;;20.90;99.90;;;;;;4777099;29;20381;-95
2021/09/27 10:25:38;;;;;;;12.15;9.18;;;20.80;99.90;;;;;;4790325;29;20065;-91
2021/09/27 10:28:09;;;;;;;12.20;9.23;;;20.90;99.90;;;;;;4789155;29;20107;-89
2021/09/27 10:30:53;;;;;;;17.17;9.05;;;21.00;99.90;;;;;;4786969;29;20124;-90
2021/09/27 10:33:51;;;;;;;10.65;8.88;;;20.90;99.90;;;;;;4780623;29;20055;-90
2021/09/27 10:36:26;;;;;;;15.02;9.65;;;20.90;99.90;;;;;;4745715;29;20155;-93
2021/09/27 10:38:58;;;;;;;12.18;9.73;;;20.80;99.90;;;;;;4783758;29;20086;-92
2021/09/27 10:41:35;;;;;;;9.93;8.50;;;20.80;99.90;;;;;;4785196;29;20235;-91
2021/09/27 10:44:23;;;;;;;10.13;8.93;;;20.90;99.90;;;;;;4791884;29;20507;-92
2021/09/27 10:46:52;;;;;;;13.35;8.93;;;20.90;99.90;;;;;;4786821;29;20059;-93
2021/09/27 10:49:35;;;;;;;13.32;8.38;;;21.10;99.90;;;;;;4788291;29;20403;-92
2021/09/27 10:52:34;;;;;;;11.45;8.57;;;21.20;99.90;;;;;;4799793;29;20059;-93
2021/09/27 10:55:08;;;;;;;16.08;8.43;;;21.20;99.90;;;;;;4786156;29;20077;-91
2021/09/27 10:57:52;;;;;;;14.57;9.15;;;21.00;99.90;;;;;;4789666;29;20042;-91
2021/09/27 11:00:24;;;;;;;13.98;7.47;;;21.00;99.90;;;;;;4788163;29;20046;-90
2021/09/27 11:02:58;;;;;;;10.30;7.35;;;20.90;99.90;;;;;;4782187;29;20470;-91
2021/09/27 11:05:44;;;;;;;12.15;7.40;;;21.00;99.90;;;;;;4786361;29;20051;-91
2021/09/27 11:08:14;;;;;;;9.57;7.13;;;20.90;99.90;;;;;;4784028;29;20384;-91
2021/09/27 11:10:42;;;;;;;;;;;20.90;99.90;;;;;;4782505;29;20086;-92
2021/09/27 11:13:11;;;;;;;9.73;6.53;;;20.90;99.90;;;;;;4804339;29;20362;-90
2021/09/27 11:15:51;;;;;;;10.55;6.45;;;21.00;99.90;;;;;;4803714;29;20047;-91
2021/09/27 11:18:31;;;;;;;12.05;6.47;;;21.10;99.90;;;;;;4805106;29;20054;-91
2021/09/27 11:21:20;;;;;;;11.52;6.13;;;21.30;99.90;;;;;;4808334;29;20054;-91
2021/09/27 11:23:49;;;;;;;8.82;6.50;;;21.50;99.90;;;;;;4800603;29;20067;-91
2021/09/27 11:26:18;;;;;;;14.25;7.63;;;21.40;99.90;;;;;;4770843;29;20139;-91
2021/09/27 11:29:18;;;;;;;12.45;6.13;;;21.60;99.90;;;;;;4786011;29;20055;-91
2021/09/27 11:31:45;;;;;;;9.23;6.38;;;21.60;99.90;;;;;;4794054;29;20054;-91
2021/09/27 11:34:41;;;;;;;6.57;5.93;;;21.50;99.90;;;;;;4793943;29;20073;-90
2021/09/27 11:37:27;;;;;;;7.65;6.10;;;21.50;99.90;;;;;;4785875;29;20058;-92
2021/09/27 11:40:11;;;;;;;7.80;5.80;;;21.50;99.90;;;;;;4744321;29;20053;-92
2021/09/27 11:42:51;;;;;;;8.85;6.15;;;21.40;99.90;;;;;;4788017;29;20059;-91
2021/09/27 11:45:30;;;;;;;8.70;6.18;;;21.40;99.90;;;;;;4785002;29;20043;-92
2021/09/27 11:47:59;;;;;;;12.90;6.35;;;21.30;99.90;;;;;;4778681;29;20060;-92
2021/09/27 11:50:30;;;;;;;11.38;6.82;;;21.30;99.90;;;;;;4785330;29;20043;-92
2021/09/27 11:53:06;;;;;;;6.25;5.65;;;21.30;99.90;;;;;;4780416;29;20058;-92
2021/09/27 11:55:39;;;;;;;8.15;5.32;;;21.20;99.90;;;;;;4785444;29;20046;-92
2021/09/27 11:58:43;;;;;;;10.73;5.38;;;21.20;99.90;;;;;;4786584;29;20117;-92
2021/09/27 12:01:43;;;;;;;6.93;4.90;;;21.20;99.90;;;;;;4730458;30;20064;-92
2021/09/27 12:04:21;;;;;;;10.27;5.90;;;21.40;99.90;;;;;;4785772;29;20051;-92
2021/09/27 12:06:56;;;;;;;8.82;5.88;;;21.50;99.90;;;;;;4785909;29;20047;-92
2021/09/27 12:09:29;;;;;;;10.07;6.38;;;21.60;99.90;;;;;;4787048;29;20469;-91
2021/09/27 12:11:58;;;;;;;9.02;5.68;;;21.60;99.90;;;;;;4795980;29;20050;-91
2021/09/27 12:14:37;;;;;;;7.72;5.70;;;21.60;99.90;;;;;;4788310;29;20050;-92
2021/09/27 12:17:05;;;;;;;9.38;6.40;;;21.60;99.90;;;;;;4794705;29;20054;-91
2021/09/27 12:19:34;;;;;;;9.32;6.05;;;21.60;99.90;;;;;;4801213;29;20054;-92
2021/09/27 12:22:05;;;;;;;10.80;6.00;;;21.60;99.90;;;;;;4794617;29;20415;-91
2021/09/27 12:24:38;;;;;;;7.65;6.28;;;21.60;99.90;;;;;;4802902;29;20099;-92
2021/09/27 12:27:11;;;;;;;16.05;6.50;;;21.50;99.90;;;;;;4788535;29;20138;-93
2021/09/27 12:29:52;;;;;;;7.50;6.30;;;21.50;99.90;;;;;;4802894;29;20782;-91
2021/09/27 12:32:25;;;;;;;11.27;6.53;;;21.50;99.90;;;;;;4796434;29;20064;-92
2021/09/27 12:34:51;;;;;;;9.25;5.80;;;21.60;99.90;;;;;;4793347;29;20068;-92
2021/09/27 12:37:22;;;;;;;9.75;5.88;;;21.70;99.90;;;;;;4794911;29;20126;-89
2021/09/27 12:39:48;;;;;;;14.15;6.00;;;21.90;99.90;;;;;;4797031;29;20466;-92
2021/09/27 12:42:27;;;;;;;12.13;7.22;;;21.90;99.90;;;;;;4788136;29;20047;-91
2021/09/27 12:45:08;;;;;;;8.43;6.10;;;21.80;99.90;;;;;;4788118;29;20526;-92
2021/09/27 12:47:34;;;;;;;7.45;5.97;;;21.70;99.90;;;;;;4769559;29;20884;-92
2021/09/27 12:50:05;;;;;;;16.52;6.30;;;21.60;99.90;;;;;;4781261;29;20053;-92
2021/09/27 12:52:48;;;;;;;15.13;6.03;;;21.50;99.90;;;;;;4780940;29;20145;-92
2021/09/27 12:55:19;;;;;;;10.43;5.50;;;21.50;99.90;;;;;;4786424;29;20058;-91
2021/09/27 12:57:49;;;;;;;8.02;5.57;;;21.50;99.90;;;;;;4788277;29;20501;-93
2021/09/27 13:00:29;;;;;;;11.90;5.82;;;21.50;99.90;;;;;;4773639;29;20543;-93
2021/09/27 13:02:55;;;;;;;11.75;6.07;;;21.50;99.90;;;;;;4781073;29;20142;-91
2021/09/27 13:05:27;;;;;;;7.60;6.13;;;21.50;99.90;;;;;;4786432;29;20039;-90
2021/09/27 13:07:59;;;;;;;6.68;5.85;;;21.40;99.90;;;;;;4792828;29;20807;-90
2021/09/27 13:10:32;;;;;;;6.88;5.65;;;21.50;99.90;;;;;;4778547;29;20042;-91
2021/09/27 13:13:06;;;;;;;8.90;5.95;;;21.60;99.90;;;;;;4787279;29;20599;-89
2021/09/27 13:15:51;;;;;;;10.18;5.43;;;21.80;99.90;;;;;;4802765;29;20058;-90
2021/09/27 13:18:35;;;;;;;6.93;5.30;;;21.90;99.90;;;;;;4798658;29;20054;-91
2021/09/27 13:21:23;;;;;;;11.15;5.22;;;22.00;99.90;;;;;;4772285;29;20129;-91